Terminal Aerodrome Forecast
Issued by NWS

Current Version | Previous Version | Text Only | Print | Product List | Glossary On
Versions: 1 2 3 4 5 6 7 8 9 10 11 12 13 14
000
FTUS45 KRIW 251700
TAFCPR
TAF
KCPR 251735Z 2518/2618 22012G22KT P6SM SKC
     FM260000 22014G20KT P6SM SKC
     FM261200 22030G40KT P6SM SKC=

USA.gov is the U.S. government's official web portal to all federal, state and local government web resources and services.